sensor_id;sensor_type;location;lat;lon;timestamp;P1;durP1;ratioP1;P2;durP2;ratioP2
65583;SDS011;70321;43.592;1.456;2023-05-31T00:01:11;5.35;;;2.90;;
65583;SDS011;70321;43.592;1.456;2023-05-31T00:03:37;4.13;;;2.83;;
65583;SDS011;70321;43.592;1.456;2023-05-31T00:06:06;6.60;;;2.90;;
65583;SDS011;70321;43.592;1.456;2023-05-31T00:08:32;4.78;;;2.80;;
65583;SDS011;70321;43.592;1.456;2023-05-31T00:10:57;4.75;;;2.47;;
65583;SDS011;70321;43.592;1.456;2023-05-31T00:13:23;5.80;;;2.63;;
65583;SDS011;70321;43.592;1.456;2023-05-31T00:15:48;5.28;;;2.70;;
65583;SDS011;70321;43.592;1.456;2023-05-31T00:18:14;6.93;;;2.78;;
65583;SDS011;70321;43.592;1.456;2023-05-31T00:20:40;4.93;;;2.80;;
65583;SDS011;70321;43.592;1.456;2023-05-31T00:23:05;4.57;;;2.65;;
65583;SDS011;70321;43.592;1.456;2023-05-31T00:25:30;4.82;;;2.85;;
65583;SDS011;70321;43.592;1.456;2023-05-31T00:27:56;4.60;;;2.78;;
65583;SDS011;70321;43.592;1.456;2023-05-31T00:30:22;5.97;;;3.00;;
65583;SDS011;70321;43.592;1.456;2023-05-31T00:32:47;6.10;;;2.70;;
65583;SDS011;70321;43.592;1.456;2023-05-31T00:35:16;5.47;;;2.88;;
65583;SDS011;70321;43.592;1.456;2023-05-31T00:37:41;8.90;;;2.92;;
65583;SDS011;70321;43.592;1.456;2023-05-31T00:40:06;5.10;;;2.83;;
65583;SDS011;70321;43.592;1.456;2023-05-31T00:42:32;4.93;;;2.78;;
65583;SDS011;70321;43.592;1.456;2023-05-31T00:44:58;5.53;;;2.60;;
65583;SDS011;70321;43.592;1.456;2023-05-31T00:47:24;7.95;;;2.78;;
65583;SDS011;70321;43.592;1.456;2023-05-31T00:49:51;8.15;;;2.70;;
65583;SDS011;70321;43.592;1.456;2023-05-31T00:52:17;7.55;;;2.83;;
65583;SDS011;70321;43.592;1.456;2023-05-31T00:54:43;5.55;;;2.78;;
65583;SDS011;70321;43.592;1.456;2023-05-31T00:57:09;5.88;;;2.75;;
65583;SDS011;70321;43.592;1.456;2023-05-31T00:59:35;4.78;;;2.90;;
65583;SDS011;70321;43.592;1.456;2023-05-31T01:02:02;5.78;;;2.88;;
65583;SDS011;70321;43.592;1.456;2023-05-31T01:04:29;5.32;;;2.42;;
65583;SDS011;70321;43.592;1.456;2023-05-31T01:06:55;5.15;;;2.67;;
65583;SDS011;70321;43.592;1.456;2023-05-31T01:09:21;5.32;;;2.35;;
65583;SDS011;70321;43.592;1.456;2023-05-31T01:11:53;6.72;;;2.63;;
65583;SDS011;70321;43.592;1.456;2023-05-31T01:14:40;7.82;;;2.40;;
65583;SDS011;70321;43.592;1.456;2023-05-31T01:19:56;8.20;;;2.70;;
65583;SDS011;70321;43.592;1.456;2023-05-31T01:30:32;4.95;;;2.33;;
65583;SDS011;70321;43.592;1.456;2023-05-31T01:33:00;4.93;;;2.78;;
65583;SDS011;70321;43.592;1.456;2023-05-31T01:35:25;5.90;;;2.80;;
65583;SDS011;70321;43.592;1.456;2023-05-31T01:37:52;5.05;;;2.38;;
65583;SDS011;70321;43.592;1.456;2023-05-31T01:40:18;4.65;;;2.53;;
65583;SDS011;70321;43.592;1.456;2023-05-31T01:42:43;6.50;;;2.40;;
65583;SDS011;70321;43.592;1.456;2023-05-31T01:45:11;4.63;;;2.40;;
65583;SDS011;70321;43.592;1.456;2023-05-31T01:47:39;3.65;;;2.38;;
65583;SDS011;70321;43.592;1.456;2023-05-31T01:50:06;8.75;;;2.90;;
65583;SDS011;70321;43.592;1.456;2023-05-31T01:52:36;6.22;;;2.88;;
65583;SDS011;70321;43.592;1.456;2023-05-31T01:55:02;4.72;;;2.10;;
65583;SDS011;70321;43.592;1.456;2023-05-31T01:57:29;6.28;;;2.85;;
65583;SDS011;70321;43.592;1.456;2023-05-31T01:59:57;5.60;;;2.72;;
65583;SDS011;70321;43.592;1.456;2023-05-31T02:02:24;5.95;;;2.63;;
65583;SDS011;70321;43.592;1.456;2023-05-31T02:04:51;5.32;;;2.60;;
65583;SDS011;70321;43.592;1.456;2023-05-31T02:07:36;7.63;;;2.75;;
65583;SDS011;70321;43.592;1.456;2023-05-31T02:10:02;7.00;;;2.45;;
65583;SDS011;70321;43.592;1.456;2023-05-31T02:12:28;5.38;;;2.35;;
65583;SDS011;70321;43.592;1.456;2023-05-31T02:14:54;5.55;;;2.75;;
65583;SDS011;70321;43.592;1.456;2023-05-31T02:17:20;5.45;;;2.40;;
65583;SDS011;70321;43.592;1.456;2023-05-31T02:19:54;4.60;;;2.58;;
65583;SDS011;70321;43.592;1.456;2023-05-31T02:22:20;5.32;;;2.40;;
65583;SDS011;70321;43.592;1.456;2023-05-31T02:24:46;5.70;;;2.72;;
65583;SDS011;70321;43.592;1.456;2023-05-31T02:27:14;6.50;;;2.60;;
65583;SDS011;70321;43.592;1.456;2023-05-31T02:29:40;5.43;;;2.75;;
65583;SDS011;70321;43.592;1.456;2023-05-31T02:32:06;5.15;;;2.40;;
65583;SDS011;70321;43.592;1.456;2023-05-31T02:34:31;6.50;;;2.50;;
65583;SDS011;70321;43.592;1.456;2023-05-31T02:36:58;4.50;;;2.80;;
65583;SDS011;70321;43.592;1.456;2023-05-31T02:39:25;7.55;;;2.72;;
65583;SDS011;70321;43.592;1.456;2023-05-31T02:41:50;4.53;;;2.88;;
65583;SDS011;70321;43.592;1.456;2023-05-31T02:44:16;4.93;;;2.67;;
65583;SDS011;70321;43.592;1.456;2023-05-31T02:46:41;5.35;;;2.35;;
65583;SDS011;70321;43.592;1.456;2023-05-31T02:49:07;5.15;;;2.53;;
65583;SDS011;70321;43.592;1.456;2023-05-31T02:51:32;4.93;;;2.53;;
65583;SDS011;70321;43.592;1.456;2023-05-31T02:53:58;8.18;;;2.90;;
65583;SDS011;70321;43.592;1.456;2023-05-31T02:56:23;10.13;;;2.63;;
65583;SDS011;70321;43.592;1.456;2023-05-31T02:58:49;6.15;;;2.70;;
65583;SDS011;70321;43.592;1.456;2023-05-31T03:01:15;5.65;;;2.58;;
65583;SDS011;70321;43.592;1.456;2023-05-31T03:03:41;10.13;;;2.90;;
65583;SDS011;70321;43.592;1.456;2023-05-31T03:06:06;8.45;;;2.85;;
65583;SDS011;70321;43.592;1.456;2023-05-31T03:08:32;6.35;;;2.72;;
65583;SDS011;70321;43.592;1.456;2023-05-31T03:10:57;4.85;;;2.70;;
65583;SDS011;70321;43.592;1.456;2023-05-31T03:13:23;4.60;;;2.80;;
65583;SDS011;70321;43.592;1.456;2023-05-31T03:15:48;5.40;;;2.60;;
65583;SDS011;70321;43.592;1.456;2023-05-31T03:18:14;5.22;;;2.80;;
65583;SDS011;70321;43.592;1.456;2023-05-31T03:20:39;6.18;;;2.80;;
65583;SDS011;70321;43.592;1.456;2023-05-31T03:23:04;8.35;;;3.03;;
65583;SDS011;70321;43.592;1.456;2023-05-31T03:25:32;4.70;;;2.38;;
65583;SDS011;70321;43.592;1.456;2023-05-31T03:27:57;4.45;;;2.55;;
65583;SDS011;70321;43.592;1.456;2023-05-31T03:30:26;5.32;;;2.63;;
65583;SDS011;70321;43.592;1.456;2023-05-31T03:32:51;5.25;;;2.47;;
65583;SDS011;70321;43.592;1.456;2023-05-31T03:35:17;4.70;;;2.55;;
65583;SDS011;70321;43.592;1.456;2023-05-31T03:37:43;6.55;;;2.78;;
65583;SDS011;70321;43.592;1.456;2023-05-31T03:40:08;6.55;;;3.15;;
65583;SDS011;70321;43.592;1.456;2023-05-31T03:42:34;6.13;;;2.50;;
65583;SDS011;70321;43.592;1.456;2023-05-31T03:45:00;6.07;;;2.45;;
65583;SDS011;70321;43.592;1.456;2023-05-31T03:47:26;7.15;;;2.60;;
65583;SDS011;70321;43.592;1.456;2023-05-31T03:49:51;4.35;;;2.67;;
65583;SDS011;70321;43.592;1.456;2023-05-31T03:52:17;5.57;;;2.60;;
65583;SDS011;70321;43.592;1.456;2023-05-31T03:54:43;6.00;;;2.70;;
65583;SDS011;70321;43.592;1.456;2023-05-31T03:57:08;6.47;;;2.58;;
65583;SDS011;70321;43.592;1.456;2023-05-31T03:59:34;5.07;;;2.80;;
65583;SDS011;70321;43.592;1.456;2023-05-31T04:02:00;5.90;;;2.90;;
65583;SDS011;70321;43.592;1.456;2023-05-31T04:04:25;6.32;;;2.60;;
65583;SDS011;70321;43.592;1.456;2023-05-31T04:06:51;5.72;;;2.60;;
65583;SDS011;70321;43.592;1.456;2023-05-31T04:09:17;6.80;;;3.33;;
65583;SDS011;70321;43.592;1.456;2023-05-31T04:11:43;6.63;;;2.80;;
65583;SDS011;70321;43.592;1.456;2023-05-31T04:14:08;4.68;;;2.53;;
65583;SDS011;70321;43.592;1.456;2023-05-31T04:16:34;4.93;;;2.70;;
65583;SDS011;70321;43.592;1.456;2023-05-31T04:18:59;7.38;;;2.58;;
65583;SDS011;70321;43.592;1.456;2023-05-31T04:21:25;6.28;;;2.60;;
65583;SDS011;70321;43.592;1.456;2023-05-31T04:23:52;6.13;;;2.70;;
65583;SDS011;70321;43.592;1.456;2023-05-31T04:26:18;7.80;;;2.72;;
65583;SDS011;70321;43.592;1.456;2023-05-31T04:28:44;5.05;;;2.53;;
65583;SDS011;70321;43.592;1.456;2023-05-31T04:31:09;5.38;;;2.88;;
65583;SDS011;70321;43.592;1.456;2023-05-31T04:33:36;6.50;;;2.85;;
65583;SDS011;70321;43.592;1.456;2023-05-31T04:36:03;11.63;;;2.78;;
65583;SDS011;70321;43.592;1.456;2023-05-31T04:38:29;7.65;;;2.83;;
65583;SDS011;70321;43.592;1.456;2023-05-31T04:40:58;4.93;;;2.90;;
65583;SDS011;70321;43.592;1.456;2023-05-31T04:43:25;5.17;;;2.83;;
65583;SDS011;70321;43.592;1.456;2023-05-31T04:45:51;9.10;;;2.88;;
65583;SDS011;70321;43.592;1.456;2023-05-31T04:48:18;6.07;;;3.08;;
65583;SDS011;70321;43.592;1.456;2023-05-31T04:50:44;5.78;;;3.00;;
65583;SDS011;70321;43.592;1.456;2023-05-31T04:53:11;8.23;;;2.83;;
65583;SDS011;70321;43.592;1.456;2023-05-31T04:55:36;4.72;;;2.67;;
65583;SDS011;70321;43.592;1.456;2023-05-31T04:58:02;5.65;;;2.67;;
65583;SDS011;70321;43.592;1.456;2023-05-31T05:00:27;4.82;;;2.35;;
65583;SDS011;70321;43.592;1.456;2023-05-31T05:02:53;8.35;;;3.22;;
65583;SDS011;70321;43.592;1.456;2023-05-31T05:05:18;4.70;;;2.80;;
65583;SDS011;70321;43.592;1.456;2023-05-31T05:07:44;6.78;;;2.72;;
65583;SDS011;70321;43.592;1.456;2023-05-31T05:10:09;5.38;;;2.50;;
65583;SDS011;70321;43.592;1.456;2023-05-31T05:12:35;4.90;;;3.08;;
65583;SDS011;70321;43.592;1.456;2023-05-31T05:15:00;4.60;;;2.50;;
65583;SDS011;70321;43.592;1.456;2023-05-31T05:17:26;5.28;;;2.65;;
65583;SDS011;70321;43.592;1.456;2023-05-31T05:19:51;5.43;;;2.58;;
65583;SDS011;70321;43.592;1.456;2023-05-31T05:22:17;5.68;;;2.70;;
65583;SDS011;70321;43.592;1.456;2023-05-31T05:24:42;6.22;;;2.90;;
65583;SDS011;70321;43.592;1.456;2023-05-31T05:27:08;7.53;;;2.95;;
65583;SDS011;70321;43.592;1.456;2023-05-31T05:29:33;4.25;;;2.65;;
65583;SDS011;70321;43.592;1.456;2023-05-31T05:31:59;4.97;;;2.65;;
65583;SDS011;70321;43.592;1.456;2023-05-31T05:34:24;6.43;;;2.92;;
65583;SDS011;70321;43.592;1.456;2023-05-31T05:36:50;9.32;;;2.78;;
65583;SDS011;70321;43.592;1.456;2023-05-31T05:39:18;5.93;;;2.35;;
65583;SDS011;70321;43.592;1.456;2023-05-31T05:41:43;7.63;;;2.80;;
65583;SDS011;70321;43.592;1.456;2023-05-31T05:44:09;5.75;;;2.80;;
65583;SDS011;70321;43.592;1.456;2023-05-31T05:46:34;9.02;;;2.63;;
65583;SDS011;70321;43.592;1.456;2023-05-31T05:49:00;8.80;;;2.80;;
65583;SDS011;70321;43.592;1.456;2023-05-31T05:51:25;5.30;;;3.20;;
65583;SDS011;70321;43.592;1.456;2023-05-31T05:53:52;5.78;;;2.97;;
65583;SDS011;70321;43.592;1.456;2023-05-31T05:56:17;7.15;;;2.97;;
65583;SDS011;70321;43.592;1.456;2023-05-31T05:58:44;6.30;;;3.22;;
65583;SDS011;70321;43.592;1.456;2023-05-31T06:01:11;12.10;;;2.78;;
65583;SDS011;70321;43.592;1.456;2023-05-31T06:03:38;5.88;;;2.90;;
65583;SDS011;70321;43.592;1.456;2023-05-31T06:06:04;6.72;;;3.08;;
65583;SDS011;70321;43.592;1.456;2023-05-31T06:08:29;7.20;;;3.00;;
65583;SDS011;70321;43.592;1.456;2023-05-31T06:10:55;6.68;;;3.25;;
65583;SDS011;70321;43.592;1.456;2023-05-31T06:13:20;6.13;;;2.67;;
65583;SDS011;70321;43.592;1.456;2023-05-31T06:15:45;6.88;;;3.20;;
65583;SDS011;70321;43.592;1.456;2023-05-31T06:18:11;10.95;;;3.80;;
65583;SDS011;70321;43.592;1.456;2023-05-31T06:20:36;9.82;;;3.47;;
65583;SDS011;70321;43.592;1.456;2023-05-31T06:23:02;7.70;;;3.58;;
65583;SDS011;70321;43.592;1.456;2023-05-31T06:25:27;10.00;;;3.70;;
65583;SDS011;70321;43.592;1.456;2023-05-31T06:27:53;8.70;;;3.63;;
65583;SDS011;70321;43.592;1.456;2023-05-31T06:30:20;9.98;;;3.88;;
65583;SDS011;70321;43.592;1.456;2023-05-31T06:32:46;5.82;;;3.60;;
65583;SDS011;70321;43.592;1.456;2023-05-31T06:35:12;10.23;;;3.80;;
65583;SDS011;70321;43.592;1.456;2023-05-31T06:37:38;7.57;;;3.40;;
65583;SDS011;70321;43.592;1.456;2023-05-31T06:40:07;11.27;;;3.55;;
65583;SDS011;70321;43.592;1.456;2023-05-31T06:42:33;6.53;;;3.80;;
65583;SDS011;70321;43.592;1.456;2023-05-31T06:44:58;12.10;;;3.60;;
65583;SDS011;70321;43.592;1.456;2023-05-31T06:47:24;10.15;;;3.88;;
65583;SDS011;70321;43.592;1.456;2023-05-31T06:49:49;9.27;;;3.80;;
65583;SDS011;70321;43.592;1.456;2023-05-31T06:52:15;9.73;;;4.13;;
65583;SDS011;70321;43.592;1.456;2023-05-31T06:54:40;8.38;;;3.83;;
65583;SDS011;70321;43.592;1.456;2023-05-31T06:57:08;10.00;;;3.70;;
65583;SDS011;70321;43.592;1.456;2023-05-31T06:59:36;7.70;;;3.78;;
65583;SDS011;70321;43.592;1.456;2023-05-31T07:02:01;12.25;;;4.03;;
65583;SDS011;70321;43.592;1.456;2023-05-31T07:04:27;8.40;;;4.20;;
65583;SDS011;70321;43.592;1.456;2023-05-31T07:06:52;9.32;;;3.75;;
65583;SDS011;70321;43.592;1.456;2023-05-31T07:09:18;10.40;;;4.10;;
65583;SDS011;70321;43.592;1.456;2023-05-31T07:11:43;8.07;;;4.53;;
65583;SDS011;70321;43.592;1.456;2023-05-31T07:14:09;9.10;;;4.22;;
65583;SDS011;70321;43.592;1.456;2023-05-31T07:16:34;10.40;;;4.38;;
65583;SDS011;70321;43.592;1.456;2023-05-31T07:19:01;8.73;;;5.00;;
65583;SDS011;70321;43.592;1.456;2023-05-31T07:21:27;9.80;;;4.50;;
65583;SDS011;70321;43.592;1.456;2023-05-31T07:23:53;9.77;;;5.20;;
65583;SDS011;70321;43.592;1.456;2023-05-31T07:26:20;10.90;;;5.53;;
65583;SDS011;70321;43.592;1.456;2023-05-31T07:28:45;10.13;;;5.63;;
65583;SDS011;70321;43.592;1.456;2023-05-31T07:31:11;10.85;;;5.43;;
65583;SDS011;70321;43.592;1.456;2023-05-31T07:33:37;12.07;;;5.70;;
65583;SDS011;70321;43.592;1.456;2023-05-31T07:36:03;15.27;;;5.50;;
65583;SDS011;70321;43.592;1.456;2023-05-31T07:38:29;11.13;;;5.55;;
65583;SDS011;70321;43.592;1.456;2023-05-31T07:40:55;12.32;;;5.38;;
65583;SDS011;70321;43.592;1.456;2023-05-31T07:43:20;10.95;;;5.65;;
65583;SDS011;70321;43.592;1.456;2023-05-31T07:45:46;13.95;;;5.80;;
65583;SDS011;70321;43.592;1.456;2023-05-31T07:48:15;10.32;;;6.07;;
65583;SDS011;70321;43.592;1.456;2023-05-31T07:50:41;11.05;;;5.90;;
65583;SDS011;70321;43.592;1.456;2023-05-31T07:53:07;20.67;;;6.53;;
65583;SDS011;70321;43.592;1.456;2023-05-31T07:55:32;11.90;;;6.70;;
65583;SDS011;70321;43.592;1.456;2023-05-31T07:57:57;12.25;;;5.70;;
65583;SDS011;70321;43.592;1.456;2023-05-31T08:00:23;12.65;;;5.63;;
65583;SDS011;70321;43.592;1.456;2023-05-31T08:02:49;13.45;;;5.70;;
65583;SDS011;70321;43.592;1.456;2023-05-31T08:05:14;11.25;;;6.13;;
65583;SDS011;70321;43.592;1.456;2023-05-31T08:07:40;10.88;;;6.15;;
65583;SDS011;70321;43.592;1.456;2023-05-31T08:10:05;8.98;;;6.00;;
65583;SDS011;70321;43.592;1.456;2023-05-31T08:12:31;13.55;;;6.18;;
65583;SDS011;70321;43.592;1.456;2023-05-31T08:14:57;11.27;;;6.43;;
65583;SDS011;70321;43.592;1.456;2023-05-31T08:17:22;10.93;;;6.63;;
65583;SDS011;70321;43.592;1.456;2023-05-31T08:19:48;12.43;;;6.85;;
65583;SDS011;70321;43.592;1.456;2023-05-31T08:22:13;14.50;;;6.25;;
65583;SDS011;70321;43.592;1.456;2023-05-31T08:24:38;13.93;;;6.68;;
65583;SDS011;70321;43.592;1.456;2023-05-31T08:27:04;12.50;;;6.90;;
65583;SDS011;70321;43.592;1.456;2023-05-31T08:29:30;14.80;;;6.95;;
65583;SDS011;70321;43.592;1.456;2023-05-31T08:31:56;11.52;;;7.25;;
65583;SDS011;70321;43.592;1.456;2023-05-31T08:34:21;14.38;;;7.22;;
65583;SDS011;70321;43.592;1.456;2023-05-31T08:36:46;13.88;;;7.35;;
65583;SDS011;70321;43.592;1.456;2023-05-31T08:39:12;15.15;;;7.50;;
65583;SDS011;70321;43.592;1.456;2023-05-31T08:41:42;14.05;;;6.93;;
65583;SDS011;70321;43.592;1.456;2023-05-31T08:44:14;15.57;;;7.90;;
65583;SDS011;70321;43.592;1.456;2023-05-31T08:46:42;13.38;;;7.97;;
65583;SDS011;70321;43.592;1.456;2023-05-31T08:49:10;13.15;;;6.97;;
65583;SDS011;70321;43.592;1.456;2023-05-31T08:51:36;11.23;;;7.15;;
65583;SDS011;70321;43.592;1.456;2023-05-31T08:54:02;12.55;;;7.43;;
65583;SDS011;70321;43.592;1.456;2023-05-31T08:56:29;15.32;;;7.88;;
65583;SDS011;70321;43.592;1.456;2023-05-31T08:58:56;17.48;;;7.18;;
65583;SDS011;70321;43.592;1.456;2023-05-31T09:01:22;14.38;;;7.70;;
65583;SDS011;70321;43.592;1.456;2023-05-31T09:03:49;14.32;;;8.02;;
65583;SDS011;70321;43.592;1.456;2023-05-31T09:06:17;14.00;;;8.05;;
65583;SDS011;70321;43.592;1.456;2023-05-31T09:08:43;12.55;;;7.95;;
65583;SDS011;70321;43.592;1.456;2023-05-31T09:11:08;13.93;;;8.10;;
65583;SDS011;70321;43.592;1.456;2023-05-31T09:13:34;15.75;;;8.18;;
65583;SDS011;70321;43.592;1.456;2023-05-31T09:16:00;16.10;;;8.40;;
65583;SDS011;70321;43.592;1.456;2023-05-31T09:18:26;14.48;;;8.20;;
65583;SDS011;70321;43.592;1.456;2023-05-31T09:20:56;14.70;;;8.32;;
65583;SDS011;70321;43.592;1.456;2023-05-31T09:23:23;13.73;;;7.95;;
65583;SDS011;70321;43.592;1.456;2023-05-31T09:25:52;15.63;;;8.23;;
65583;SDS011;70321;43.592;1.456;2023-05-31T09:28:18;15.90;;;7.45;;
65583;SDS011;70321;43.592;1.456;2023-05-31T09:30:45;16.00;;;8.45;;
65583;SDS011;70321;43.592;1.456;2023-05-31T09:33:12;14.48;;;7.90;;
65583;SDS011;70321;43.592;1.456;2023-05-31T09:35:41;14.98;;;8.00;;
65583;SDS011;70321;43.592;1.456;2023-05-31T09:38:21;14.40;;;7.47;;
65583;SDS011;70321;43.592;1.456;2023-05-31T09:40:56;16.08;;;7.82;;
65583;SDS011;70321;43.592;1.456;2023-05-31T09:43:22;14.90;;;7.70;;
65583;SDS011;70321;43.592;1.456;2023-05-31T09:45:47;14.43;;;8.07;;
65583;SDS011;70321;43.592;1.456;2023-05-31T09:48:13;15.27;;;7.57;;
65583;SDS011;70321;43.592;1.456;2023-05-31T09:50:38;13.93;;;7.43;;
65583;SDS011;70321;43.592;1.456;2023-05-31T09:53:04;15.40;;;8.15;;
65583;SDS011;70321;43.592;1.456;2023-05-31T09:55:39;14.30;;;7.93;;
65583;SDS011;70321;43.592;1.456;2023-05-31T09:58:07;13.50;;;7.45;;
65583;SDS011;70321;43.592;1.456;2023-05-31T10:00:32;18.50;;;7.80;;
65583;SDS011;70321;43.592;1.456;2023-05-31T10:02:58;13.50;;;7.68;;
65583;SDS011;70321;43.592;1.456;2023-05-31T10:05:24;15.13;;;8.27;;
65583;SDS011;70321;43.592;1.456;2023-05-31T10:07:50;14.00;;;7.63;;
65583;SDS011;70321;43.592;1.456;2023-05-31T10:10:17;15.18;;;8.00;;
65583;SDS011;70321;43.592;1.456;2023-05-31T10:12:48;11.45;;;7.30;;
65583;SDS011;70321;43.592;1.456;2023-05-31T10:15:23;12.20;;;7.25;;
65583;SDS011;70321;43.592;1.456;2023-05-31T10:23:01;11.85;;;7.30;;
65583;SDS011;70321;43.592;1.456;2023-05-31T10:25:41;12.48;;;7.50;;
65583;SDS011;70321;43.592;1.456;2023-05-31T10:28:11;12.52;;;7.00;;
65583;SDS011;70321;43.592;1.456;2023-05-31T10:30:42;13.18;;;7.07;;
65583;SDS011;70321;43.592;1.456;2023-05-31T10:33:13;13.60;;;7.47;;
65583;SDS011;70321;43.592;1.456;2023-05-31T10:35:39;12.70;;;7.65;;
65583;SDS011;70321;43.592;1.456;2023-05-31T10:38:05;9.75;;;6.85;;
65583;SDS011;70321;43.592;1.456;2023-05-31T10:40:53;11.57;;;6.20;;
65583;SDS011;70321;43.592;1.456;2023-05-31T10:46:31;13.93;;;6.93;;
65583;SDS011;70321;43.592;1.456;2023-05-31T10:49:00;11.23;;;6.43;;
65583;SDS011;70321;43.592;1.456;2023-05-31T10:51:44;9.65;;;5.72;;
65583;SDS011;70321;43.592;1.456;2023-05-31T10:54:20;13.63;;;6.05;;
65583;SDS011;70321;43.592;1.456;2023-05-31T10:56:59;11.63;;;6.43;;
65583;SDS011;70321;43.592;1.456;2023-05-31T10:59:28;12.95;;;6.57;;
65583;SDS011;70321;43.592;1.456;2023-05-31T11:02:04;12.88;;;7.18;;
65583;SDS011;70321;43.592;1.456;2023-05-31T11:04:31;10.60;;;6.38;;
65583;SDS011;70321;43.592;1.456;2023-05-31T11:07:17;15.25;;;6.50;;
65583;SDS011;70321;43.592;1.456;2023-05-31T11:09:56;14.18;;;6.10;;
65583;SDS011;70321;43.592;1.456;2023-05-31T11:12:31;11.15;;;6.07;;
65583;SDS011;70321;43.592;1.456;2023-05-31T11:15:00;12.20;;;5.97;;
65583;SDS011;70321;43.592;1.456;2023-05-31T11:17:30;9.60;;;6.05;;
65583;SDS011;70321;43.592;1.456;2023-05-31T11:20:04;9.85;;;5.97;;
65583;SDS011;70321;43.592;1.456;2023-05-31T11:22:30;10.43;;;6.47;;
65583;SDS011;70321;43.592;1.456;2023-05-31T11:24:56;11.07;;;6.40;;
65583;SDS011;70321;43.592;1.456;2023-05-31T11:27:35;11.70;;;5.85;;
65583;SDS011;70321;43.592;1.456;2023-05-31T11:30:23;10.13;;;6.15;;
65583;SDS011;70321;43.592;1.456;2023-05-31T11:35:19;12.43;;;6.18;;
65583;SDS011;70321;43.592;1.456;2023-05-31T11:37:45;10.80;;;6.40;;
65583;SDS011;70321;43.592;1.456;2023-05-31T11:40:12;9.63;;;6.03;;
65583;SDS011;70321;43.592;1.456;2023-05-31T11:42:42;9.88;;;6.20;;
65583;SDS011;70321;43.592;1.456;2023-05-31T11:45:09;8.98;;;5.30;;
65583;SDS011;70321;43.592;1.456;2023-05-31T11:48:04;8.82;;;5.47;;
65583;SDS011;70321;43.592;1.456;2023-05-31T11:50:30;10.13;;;5.38;;
65583;SDS011;70321;43.592;1.456;2023-05-31T11:52:56;9.02;;;5.70;;
65583;SDS011;70321;43.592;1.456;2023-05-31T11:55:24;9.55;;;5.60;;
65583;SDS011;70321;43.592;1.456;2023-05-31T11:57:55;10.55;;;5.50;;
65583;SDS011;70321;43.592;1.456;2023-05-31T12:00:21;11.75;;;5.32;;
65583;SDS011;70321;43.592;1.456;2023-05-31T12:02:53;10.05;;;5.32;;
65583;SDS011;70321;43.592;1.456;2023-05-31T12:05:21;9.98;;;5.35;;
65583;SDS011;70321;43.592;1.456;2023-05-31T12:07:47;9.73;;;5.32;;
65583;SDS011;70321;43.592;1.456;2023-05-31T12:10:12;10.02;;;4.75;;
65583;SDS011;70321;43.592;1.456;2023-05-31T12:12:38;8.05;;;4.65;;
65583;SDS011;70321;43.592;1.456;2023-05-31T12:15:05;8.48;;;4.78;;
65583;SDS011;70321;43.592;1.456;2023-05-31T12:17:31;9.88;;;4.75;;
65583;SDS011;70321;43.592;1.456;2023-05-31T12:19:57;10.02;;;4.57;;
65583;SDS011;70321;43.592;1.456;2023-05-31T12:22:26;9.57;;;5.10;;
65583;SDS011;70321;43.592;1.456;2023-05-31T12:24:55;9.00;;;5.10;;
65583;SDS011;70321;43.592;1.456;2023-05-31T12:27:26;9.65;;;4.90;;
65583;SDS011;70321;43.592;1.456;2023-05-31T12:29:55;7.85;;;5.00;;
65583;SDS011;70321;43.592;1.456;2023-05-31T12:32:21;12.20;;;4.80;;
65583;SDS011;70321;43.592;1.456;2023-05-31T12:34:46;8.93;;;4.78;;
65583;SDS011;70321;43.592;1.456;2023-05-31T12:37:14;10.40;;;5.13;;
65583;SDS011;70321;43.592;1.456;2023-05-31T12:39:40;7.57;;;4.63;;
65583;SDS011;70321;43.592;1.456;2023-05-31T12:42:05;9.32;;;4.97;;
65583;SDS011;70321;43.592;1.456;2023-05-31T12:44:32;7.78;;;4.85;;
65583;SDS011;70321;43.592;1.456;2023-05-31T12:46:59;11.18;;;4.90;;
65583;SDS011;70321;43.592;1.456;2023-05-31T12:49:31;7.82;;;5.13;;
65583;SDS011;70321;43.592;1.456;2023-05-31T12:52:01;8.45;;;4.53;;
65583;SDS011;70321;43.592;1.456;2023-05-31T12:54:34;8.80;;;4.65;;
65583;SDS011;70321;43.592;1.456;2023-05-31T12:57:04;7.65;;;4.60;;
65583;SDS011;70321;43.592;1.456;2023-05-31T12:59:34;7.53;;;4.82;;
65583;SDS011;70321;43.592;1.456;2023-05-31T13:02:01;8.70;;;4.80;;
65583;SDS011;70321;43.592;1.456;2023-05-31T13:04:27;9.48;;;4.80;;
65583;SDS011;70321;43.592;1.456;2023-05-31T13:06:53;11.85;;;4.78;;
65583;SDS011;70321;43.592;1.456;2023-05-31T13:09:22;9.07;;;4.38;;
65583;SDS011;70321;43.592;1.456;2023-05-31T13:11:48;9.40;;;4.32;;
65583;SDS011;70321;43.592;1.456;2023-05-31T13:14:15;9.07;;;3.85;;
65583;SDS011;70321;43.592;1.456;2023-05-31T13:16:42;10.52;;;3.58;;
65583;SDS011;70321;43.592;1.456;2023-05-31T13:19:08;10.05;;;3.25;;
65583;SDS011;70321;43.592;1.456;2023-05-31T13:21:34;9.93;;;2.92;;
65583;SDS011;70321;43.592;1.456;2023-05-31T13:24:02;7.38;;;2.30;;
65583;SDS011;70321;43.592;1.456;2023-05-31T13:26:29;5.03;;;2.15;;
65583;SDS011;70321;43.592;1.456;2023-05-31T13:28:56;6.05;;;2.03;;
65583;SDS011;70321;43.592;1.456;2023-05-31T13:31:23;8.13;;;2.35;;
65583;SDS011;70321;43.592;1.456;2023-05-31T13:33:49;3.95;;;2.10;;
65583;SDS011;70321;43.592;1.456;2023-05-31T13:36:15;3.80;;;1.90;;
65583;SDS011;70321;43.592;1.456;2023-05-31T13:38:42;7.55;;;2.03;;
65583;SDS011;70321;43.592;1.456;2023-05-31T13:41:07;3.13;;;1.58;;
65583;SDS011;70321;43.592;1.456;2023-05-31T13:43:33;8.75;;;2.00;;
65583;SDS011;70321;43.592;1.456;2023-05-31T13:45:59;3.85;;;1.77;;
65583;SDS011;70321;43.592;1.456;2023-05-31T13:48:25;2.90;;;1.80;;
65583;SDS011;70321;43.592;1.456;2023-05-31T13:50:51;3.20;;;1.80;;
65583;SDS011;70321;43.592;1.456;2023-05-31T13:53:17;6.53;;;1.98;;
65583;SDS011;70321;43.592;1.456;2023-05-31T13:55:43;2.83;;;1.70;;
65583;SDS011;70321;43.592;1.456;2023-05-31T13:58:11;4.25;;;2.00;;
65583;SDS011;70321;43.592;1.456;2023-05-31T14:00:36;9.52;;;2.20;;
65583;SDS011;70321;43.592;1.456;2023-05-31T14:03:02;5.07;;;2.13;;
65583;SDS011;70321;43.592;1.456;2023-05-31T14:05:27;3.95;;;1.90;;
65583;SDS011;70321;43.592;1.456;2023-05-31T14:07:53;4.25;;;1.80;;
65583;SDS011;70321;43.592;1.456;2023-05-31T14:10:20;3.95;;;2.17;;
65583;SDS011;70321;43.592;1.456;2023-05-31T14:12:46;4.55;;;2.05;;
65583;SDS011;70321;43.592;1.456;2023-05-31T14:15:13;3.63;;;1.90;;
65583;SDS011;70321;43.592;1.456;2023-05-31T14:17:39;5.55;;;1.98;;
65583;SDS011;70321;43.592;1.456;2023-05-31T14:20:04;3.45;;;1.90;;
65583;SDS011;70321;43.592;1.456;2023-05-31T14:22:31;6.82;;;2.17;;
65583;SDS011;70321;43.592;1.456;2023-05-31T14:24:56;3.72;;;1.88;;
65583;SDS011;70321;43.592;1.456;2023-05-31T14:27:22;3.30;;;1.90;;
65583;SDS011;70321;43.592;1.456;2023-05-31T14:29:47;5.18;;;2.17;;
65583;SDS011;70321;43.592;1.456;2023-05-31T14:32:13;2.88;;;1.80;;
65583;SDS011;70321;43.592;1.456;2023-05-31T14:34:40;4.30;;;1.92;;
65583;SDS011;70321;43.592;1.456;2023-05-31T14:37:06;3.75;;;1.70;;
65583;SDS011;70321;43.592;1.456;2023-05-31T14:39:31;2.95;;;1.80;;
65583;SDS011;70321;43.592;1.456;2023-05-31T14:41:57;2.88;;;1.75;;
65583;SDS011;70321;43.592;1.456;2023-05-31T14:44:23;3.45;;;2.05;;
65583;SDS011;70321;43.592;1.456;2023-05-31T14:46:49;4.00;;;1.90;;
65583;SDS011;70321;43.592;1.456;2023-05-31T14:49:17;4.85;;;1.80;;
65583;SDS011;70321;43.592;1.456;2023-05-31T14:51:43;4.80;;;1.90;;
65583;SDS011;70321;43.592;1.456;2023-05-31T14:54:08;2.95;;;1.95;;
65583;SDS011;70321;43.592;1.456;2023-05-31T14:56:34;3.60;;;1.83;;
65583;SDS011;70321;43.592;1.456;2023-05-31T14:58:59;5.57;;;1.92;;
65583;SDS011;70321;43.592;1.456;2023-05-31T15:01:25;5.03;;;1.98;;
65583;SDS011;70321;43.592;1.456;2023-05-31T15:03:50;3.95;;;1.90;;